Time;durP1;ratioP1;P1;durP2;ratioP2;P2;SDS_P1;SDS_P2;PMS_P1;PMS_P2;Temp;Humidity;BMP_temperature;BMP_pressure;BME280_temperature;BME280_humidity;BME280_pressure;Samples;Min_cycle;Max_cycle;Signal;HPM_P1;HPM_P2
2023/05/27 00:00:46;;;;;;;1.77;1.05;;;13.20;99.90;;;;;;5072173;28;20276;-87
2023/05/27 00:03:18;;;;;;;1.58;0.75;;;13.30;99.90;;;;;;5072087;28;20196;-87
2023/05/27 00:05:49;;;;;;;1.88;0.88;;;13.50;99.90;;;;;;5071649;28;20200;-89
2023/05/27 00:08:20;;;;;;;4.45;1.40;;;13.50;99.90;;;;;;5071593;28;20219;-88
2023/05/27 00:10:58;;;;;;;5.57;1.30;;;13.60;99.90;;;;;;5073840;28;20674;-88
2023/05/27 00:13:29;;;;;;;3.45;1.20;;;13.70;99.90;;;;;;5072470;28;20662;-87
2023/05/27 00:16:01;;;;;;;2.05;0.80;;;13.60;99.90;;;;;;5071792;28;20192;-88
2023/05/27 00:18:33;;;;;;;4.47;0.98;;;13.80;99.90;;;;;;5072503;28;20196;-88
2023/05/27 00:21:05;;;;;;;1.77;0.90;;;13.90;99.90;;;;;;5073799;28;20219;-88
2023/05/27 00:23:36;;;;;;;1.83;1.10;;;13.90;99.90;;;;;;5073759;28;20204;-87
2023/05/27 00:26:11;;;;;;;3.03;1.00;;;14.00;99.90;;;;;;5071732;28;20200;-87
2023/05/27 00:28:46;;;;;;;2.42;1.00;;;14.10;99.90;;;;;;5073395;28;20231;-87
2023/05/27 00:31:22;;;;;;;2.35;1.00;;;14.20;99.90;;;;;;5073552;28;20214;-88
2023/05/27 00:34:00;;;;;;;2.38;0.90;;;14.30;99.90;;;;;;5074581;28;20192;-88
2023/05/27 00:36:35;;;;;;;1.50;0.73;;;14.40;99.90;;;;;;5084863;28;20195;-87
2023/05/27 00:39:10;;;;;;;3.35;0.88;;;14.50;99.90;;;;;;5076229;28;20239;-88
2023/05/27 00:41:51;;;;;;;2.67;1.30;;;14.50;99.90;;;;;;5074054;28;20219;-88
2023/05/27 00:44:22;;;;;;;2.25;1.17;;;14.60;99.90;;;;;;5075125;28;20247;-87
2023/05/27 00:46:58;;;;;;;2.65;1.20;;;14.60;99.90;;;;;;5073967;28;20278;-88
2023/05/27 00:49:33;;;;;;;3.72;1.10;;;14.40;99.90;;;;;;5071620;28;20685;-88
2023/05/27 00:52:07;;;;;;;2.33;0.77;;;14.60;99.90;;;;;;5071929;28;20199;-86
2023/05/27 00:54:38;;;;;;;2.55;0.70;;;14.80;99.90;;;;;;5071433;28;20334;-87
2023/05/27 00:57:11;;;;;;;2.53;1.08;;;15.00;99.90;;;;;;5071604;28;20204;-88
2023/05/27 00:59:46;;;;;;;5.10;1.02;;;15.20;99.90;;;;;;5071173;28;20196;-87
2023/05/27 01:02:18;;;;;;;1.88;0.70;;;15.30;99.90;;;;;;5072256;28;20226;-86
2023/05/27 01:04:52;;;;;;;1.30;0.70;;;15.40;99.90;;;;;;5094116;28;20180;-88
2023/05/27 01:07:37;;;;;;;2.25;0.85;;;15.40;99.90;;;;;;5098929;28;20220;-87
2023/05/27 01:10:17;;;;;;;2.38;1.15;;;15.40;99.90;;;;;;5099079;28;20212;-86
2023/05/27 01:12:56;;;;;;;2.70;1.13;;;15.40;99.90;;;;;;5097748;28;20190;-87
2023/05/27 01:15:28;;;;;;;3.22;0.95;;;15.50;99.90;;;;;;5094420;28;20206;-88
2023/05/27 01:18:03;;;;;;;1.90;1.17;;;15.60;99.90;;;;;;5098868;28;20198;-87
2023/05/27 01:20:40;;;;;;;1.90;0.80;;;15.60;99.90;;;;;;5097056;28;20219;-86
2023/05/27 01:23:14;;;;;;;1.98;0.90;;;15.70;99.90;;;;;;5078361;28;20195;-86
2023/05/27 01:25:45;;;;;;;1.45;0.98;;;15.70;99.90;;;;;;5079134;28;20200;-87
2023/05/27 01:28:16;;;;;;;1.80;1.20;;;15.70;99.90;;;;;;5078287;28;20196;-87
2023/05/27 01:30:47;;;;;;;4.28;1.10;;;15.80;99.90;;;;;;5078248;28;20204;-86
2023/05/27 01:33:27;;;;;;;3.25;1.00;;;16.00;99.90;;;;;;5077408;28;20204;-87
2023/05/27 01:36:04;;;;;;;4.07;1.13;;;16.10;99.90;;;;;;5076659;28;20279;-86
2023/05/27 01:38:43;;;;;;;2.47;0.80;;;16.30;99.90;;;;;;5077150;28;20316;-87
2023/05/27 01:41:16;;;;;;;2.97;1.25;;;16.40;99.90;;;;;;5077434;28;20212;-87
2023/05/27 01:43:47;;;;;;;2.20;1.00;;;16.40;99.90;;;;;;5077714;28;20211;-87
2023/05/27 01:46:19;;;;;;;3.42;1.00;;;16.40;99.90;;;;;;5077073;28;20199;-86
2023/05/27 01:48:53;;;;;;;3.80;0.98;;;16.60;99.90;;;;;;5077763;28;20203;-86
2023/05/27 01:51:24;;;;;;;1.17;0.85;;;16.50;99.90;;;;;;5076841;28;20196;-87
2023/05/27 01:53:57;;;;;;;2.22;0.88;;;16.50;99.90;;;;;;5076418;28;20214;-87
2023/05/27 01:56:29;;;;;;;2.60;0.63;;;16.70;99.90;;;;;;5076889;28;20200;-87
2023/05/27 01:59:00;;;;;;;3.22;0.90;;;16.80;99.90;;;;;;5076055;28;20195;-88
2023/05/27 02:01:33;;;;;;;1.98;0.80;;;16.90;99.90;;;;;;5075486;28;20216;-86
2023/05/27 02:04:04;;;;;;;1.10;0.70;;;16.90;99.90;;;;;;5076223;28;20286;-86
2023/05/27 02:06:35;;;;;;;1.42;0.70;;;17.00;99.90;;;;;;5074892;28;20265;-87
2023/05/27 02:09:10;;;;;;;4.18;2.47;;;17.00;99.90;;;;;;5073904;28;20274;-86
2023/05/27 02:11:42;;;;;;;3.10;1.77;;;17.00;99.90;;;;;;5074853;28;20623;-87
2023/05/27 02:14:13;;;;;;;2.88;1.10;;;17.00;99.90;;;;;;5074347;28;20200;-87
2023/05/27 02:16:44;;;;;;;2.30;1.00;;;17.10;99.90;;;;;;5074688;28;20196;-87
2023/05/27 02:19:16;;;;;;;2.20;1.10;;;17.30;99.90;;;;;;5074676;28;20222;-87
2023/05/27 02:21:48;;;;;;;1.25;0.68;;;17.30;99.90;;;;;;5075161;28;20301;-87
2023/05/27 02:24:21;;;;;;;3.63;0.93;;;17.40;99.90;;;;;;5073524;28;20542;-86
2023/05/27 02:26:52;;;;;;;5.38;3.30;;;17.50;99.90;;;;;;5073118;28;20196;-86
2023/05/27 02:29:23;;;;;;;2.60;0.98;;;17.60;99.90;;;;;;5072750;28;20231;-85
2023/05/27 02:31:54;;;;;;;2.25;1.08;;;17.70;99.90;;;;;;5072764;28;20594;-87
2023/05/27 02:34:26;;;;;;;3.47;1.00;;;17.70;99.20;;;;;;5073417;28;20210;-87
2023/05/27 02:36:57;;;;;;;0.63;0.50;;;17.90;99.70;;;;;;5071975;28;20203;-86
2023/05/27 02:39:34;;;;;;;2.47;0.80;;;17.90;99.50;;;;;;5073049;28;20195;-86
2023/05/27 02:42:05;;;;;;;0.85;0.63;;;17.90;95.90;;;;;;5072839;28;20230;-86
2023/05/27 02:44:38;;;;;;;4.88;1.08;;;17.80;95.40;;;;;;5077732;28;20200;-85
2023/05/27 02:47:10;;;;;;;2.47;1.00;;;17.80;93.50;;;;;;5077237;28;20221;-87
2023/05/27 02:49:41;;;;;;;3.17;1.40;;;17.70;92.90;;;;;;5072725;28;20280;-86
2023/05/27 02:52:13;;;;;;;4.70;0.82;;;17.70;92.00;;;;;;5072819;28;20207;-86
2023/05/27 02:54:46;;;;;;;0.63;0.50;;;17.70;93.40;;;;;;5076873;28;20284;-85
2023/05/27 02:57:18;;;;;;;2.35;1.10;;;17.90;93.20;;;;;;5092549;28;20264;-84
2023/05/27 02:59:50;;;;;;;1.60;0.80;;;18.00;91.90;;;;;;5092980;28;20200;-87
2023/05/27 03:02:22;;;;;;;0.73;0.60;;;18.00;90.60;;;;;;5088520;28;20220;-86
2023/05/27 03:04:55;;;;;;;2.00;0.70;;;18.10;91.30;;;;;;5073070;28;20196;-86
2023/05/27 03:07:28;;;;;;;1.95;0.60;;;18.20;90.20;;;;;;5072462;28;20218;-86
2023/05/27 03:10:03;;;;;;;2.00;0.60;;;18.10;90.50;;;;;;5073332;28;20570;-86
2023/05/27 03:12:34;;;;;;;1.13;0.70;;;18.10;90.60;;;;;;5053596;28;20200;-86
2023/05/27 03:15:07;;;;;;;2.08;0.73;;;18.20;91.10;;;;;;5052157;28;20200;-85
2023/05/27 03:17:41;;;;;;;2.22;0.80;;;18.30;90.10;;;;;;5069376;28;20223;-87
2023/05/27 03:20:13;;;;;;;2.22;0.65;;;18.20;88.40;;;;;;5072176;28;20327;-87
2023/05/27 03:22:44;;;;;;;2.10;0.73;;;18.20;87.40;;;;;;5072610;28;20207;-87
2023/05/27 03:25:19;;;;;;;3.58;0.80;;;18.20;88.70;;;;;;5072376;28;20196;-88
2023/05/27 03:27:52;;;;;;;2.35;1.50;;;18.20;88.70;;;;;;5069259;28;20180;-87
2023/05/27 03:30:26;;;;;;;1.63;0.82;;;18.20;87.90;;;;;;5062727;28;20280;-88
2023/05/27 03:33:01;;;;;;;2.38;1.80;;;18.30;88.50;;;;;;5056560;28;20207;-87
2023/05/27 03:35:32;;;;;;;1.55;0.77;;;18.30;85.50;;;;;;5072595;28;20686;-88
2023/05/27 03:38:04;;;;;;;2.25;1.40;;;18.20;84.60;;;;;;5072404;28;20188;-88
2023/05/27 03:40:39;;;;;;;1.48;0.70;;;18.10;84.50;;;;;;5072669;28;20200;-88
2023/05/27 03:43:10;;;;;;;1.85;0.60;;;18.00;86.60;;;;;;5071735;28;20245;-88
2023/05/27 03:45:41;;;;;;;2.70;0.77;;;18.10;87.30;;;;;;5072139;28;20566;-88
2023/05/27 03:48:13;;;;;;;2.08;0.60;;;18.20;87.70;;;;;;5072605;28;20578;-88
2023/05/27 03:50:44;;;;;;;1.60;0.70;;;18.20;87.10;;;;;;5071830;28;20206;-87
2023/05/27 03:53:15;;;;;;;1.08;0.70;;;18.10;86.90;;;;;;5072620;28;20200;-87
2023/05/27 03:55:48;;;;;;;1.48;0.65;;;18.20;85.40;;;;;;5071903;28;20222;-88
2023/05/27 03:58:20;;;;;;;1.77;0.68;;;18.10;83.90;;;;;;5072267;28;20562;-88
2023/05/27 04:00:51;;;;;;;2.08;0.90;;;18.10;85.70;;;;;;5072587;28;20706;-87
2023/05/27 04:03:27;;;;;;;5.70;0.80;;;18.10;85.70;;;;;;5072787;28;20196;-88
2023/05/27 04:05:58;;;;;;;1.65;0.75;;;18.20;86.30;;;;;;5075148;28;20196;-88
2023/05/27 04:08:29;;;;;;;1.38;0.70;;;18.30;85.50;;;;;;5086519;28;20224;-85
2023/05/27 04:11:05;;;;;;;3.30;0.70;;;18.30;84.00;;;;;;5080571;28;20637;-87
2023/05/27 04:13:36;;;;;;;1.67;0.75;;;18.20;84.50;;;;;;5072925;28;20249;-87
2023/05/27 04:16:11;;;;;;;1.27;0.70;;;18.20;85.70;;;;;;5073358;28;20200;-86
2023/05/27 04:18:48;;;;;;;2.40;0.82;;;18.10;86.00;;;;;;5074246;28;20195;-87
2023/05/27 04:21:22;;;;;;;1.88;0.70;;;18.10;83.40;;;;;;5071217;28;20216;-87
2023/05/27 04:23:55;;;;;;;4.78;0.70;;;18.10;82.60;;;;;;5073949;28;20207;-87
2023/05/27 04:26:31;;;;;;;1.90;0.80;;;18.00;82.60;;;;;;5073840;28;20211;-88
2023/05/27 04:29:03;;;;;;;4.65;0.88;;;18.00;82.50;;;;;;5075572;28;20232;-87
2023/05/27 04:31:36;;;;;;;1.20;0.43;;;18.00;83.00;;;;;;5073656;28;20196;-87
2023/05/27 04:34:07;;;;;;;1.05;0.60;;;18.00;83.80;;;;;;5073432;28;20570;-88
2023/05/27 04:36:39;;;;;;;1.77;0.57;;;18.10;81.90;;;;;;5076182;28;20212;-87
2023/05/27 04:39:11;;;;;;;1.70;0.70;;;18.00;82.40;;;;;;5076406;28;20226;-88
2023/05/27 04:41:47;;;;;;;1.38;0.70;;;18.10;83.50;;;;;;5077544;28;20275;-88
2023/05/27 04:44:26;;;;;;;1.85;1.10;;;18.10;82.90;;;;;;5082319;28;20570;-87
2023/05/27 04:46:58;;;;;;;2.08;0.80;;;18.10;82.10;;;;;;5080860;28;20195;-87
2023/05/27 04:49:30;;;;;;;3.22;1.70;;;18.10;82.30;;;;;;5082589;28;20208;-87
2023/05/27 04:52:02;;;;;;;2.70;1.08;;;18.10;81.30;;;;;;5078320;28;20244;-86
2023/05/27 04:54:34;;;;;;;3.00;1.10;;;18.10;80.30;;;;;;5089432;28;20295;-87
2023/05/27 04:57:11;;;;;;;0.95;0.60;;;18.10;80.10;;;;;;5075292;28;20195;-87
2023/05/27 04:59:58;;;;;;;1.25;0.60;;;18.00;80.20;;;;;;5075793;28;20197;-87
2023/05/27 05:02:34;;;;;;;1.10;0.50;;;18.10;81.90;;;;;;5075415;28;20224;-88
2023/05/27 05:05:06;;;;;;;2.90;0.55;;;18.20;83.20;;;;;;5075643;28;20245;-88
2023/05/27 05:07:41;;;;;;;1.13;0.60;;;18.20;82.20;;;;;;5076041;28;20222;-88
2023/05/27 05:10:13;;;;;;;1.75;0.60;;;18.30;83.20;;;;;;5083001;28;20203;-88
2023/05/27 05:12:54;;;;;;;1.00;0.60;;;18.20;82.80;;;;;;5061691;28;20280;-88
2023/05/27 05:15:30;;;;;;;1.30;0.70;;;18.20;82.50;;;;;;5068333;28;20203;-88
2023/05/27 05:18:02;;;;;;;3.17;0.73;;;18.20;83.00;;;;;;5082721;28;20184;-88
2023/05/27 05:20:34;;;;;;;1.48;0.60;;;18.20;83.10;;;;;;5089420;28;20267;-88
2023/05/27 05:23:09;;;;;;;1.70;0.55;;;18.20;84.50;;;;;;5085738;28;20232;-88
2023/05/27 05:25:54;;;;;;;0.98;0.63;;;18.20;83.20;;;;;;5084196;28;20192;-88
2023/05/27 05:28:29;;;;;;;1.65;0.50;;;18.20;84.50;;;;;;5080370;28;20756;-87
2023/05/27 05:31:01;;;;;;;2.20;0.50;;;18.20;86.70;;;;;;5083169;28;20516;-88
2023/05/27 05:33:36;;;;;;;0.65;0.40;;;18.30;88.00;;;;;;5085519;28;20202;-88
2023/05/27 05:36:15;;;;;;;1.08;0.55;;;18.30;89.80;;;;;;5083511;28;20203;-88
2023/05/27 05:38:51;;;;;;;1.58;0.52;;;18.10;90.60;;;;;;5082702;28;20184;-88
2023/05/27 05:41:28;;;;;;;0.75;0.40;;;18.20;91.00;;;;;;5080106;28;20228;-88
2023/05/27 05:44:05;;;;;;;1.27;0.60;;;18.10;91.30;;;;;;5081717;28;20203;-88
2023/05/27 05:46:46;;;;;;;1.13;0.60;;;18.20;91.60;;;;;;5083787;28;20192;-88
2023/05/27 05:49:18;;;;;;;4.10;0.90;;;18.10;91.70;;;;;;5077821;28;20274;-88
2023/05/27 05:51:52;;;;;;;3.28;1.10;;;18.10;91.90;;;;;;5075879;28;20206;-88
2023/05/27 05:54:24;;;;;;;3.70;0.85;;;18.10;92.10;;;;;;5074417;28;20195;-88
2023/05/27 05:56:55;;;;;;;2.25;1.60;;;18.10;91.70;;;;;;5075925;28;20188;-88
2023/05/27 05:59:29;;;;;;;0.65;0.50;;;17.80;91.60;;;;;;5075929;28;20198;-89
2023/05/27 06:02:01;;;;;;;0.70;0.70;;;17.60;92.00;;;;;;5075426;28;20686;-88
2023/05/27 06:04:32;;;;;;;0.55;0.55;;;17.60;92.70;;;;;;5075591;28;20196;-88
2023/05/27 06:07:03;;;;;;;0.85;0.40;;;17.50;92.70;;;;;;5075257;28;20601;-88
2023/05/27 06:09:35;;;;;;;1.30;0.60;;;17.40;93.00;;;;;;5076103;28;20650;-88
2023/05/27 06:12:06;;;;;;;0.73;0.50;;;17.50;92.80;;;;;;5075014;28;20192;-86
2023/05/27 06:14:44;;;;;;;0.47;0.40;;;17.60;93.00;;;;;;5075315;28;20222;-87
2023/05/27 06:17:15;;;;;;;0.85;0.30;;;17.50;92.80;;;;;;5075558;28;20194;-89
2023/05/27 06:19:48;;;;;;;1.40;0.60;;;17.50;93.20;;;;;;5075176;28;20655;-86
2023/05/27 06:22:20;;;;;;;1.08;0.90;;;17.50;92.70;;;;;;5074665;28;20224;-86
2023/05/27 06:24:55;;;;;;;1.90;0.80;;;17.30;93.40;;;;;;5074338;28;20264;-87
2023/05/27 06:27:26;;;;;;;2.20;0.60;;;17.10;93.50;;;;;;5075142;28;20199;-86
2023/05/27 06:30:03;;;;;;;2.95;0.55;;;17.00;93.90;;;;;;5073760;28;20602;-86
2023/05/27 06:32:35;;;;;;;1.38;0.52;;;17.00;93.70;;;;;;5054947;28;20594;-87
2023/05/27 06:35:08;;;;;;;1.35;0.70;;;16.80;93.90;;;;;;5057524;28;20207;-87
2023/05/27 06:37:40;;;;;;;1.88;0.50;;;16.80;94.30;;;;;;5058349;28;20236;-86
2023/05/27 06:40:13;;;;;;;1.52;0.80;;;16.70;94.80;;;;;;5062234;28;20663;-87
2023/05/27 06:42:48;;;;;;;0.73;0.68;;;16.60;95.50;;;;;;5075829;28;20223;-86
2023/05/27 06:45:22;;;;;;;0.63;0.55;;;16.40;95.20;;;;;;5077442;28;20286;-86
2023/05/27 06:50:38;;;;;;;1.05;0.70;;;16.30;96.10;;;;;;5074333;28;20200;-87
2023/05/27 06:53:13;;;;;;;3.90;0.93;;;16.30;96.10;;;;;;5072889;28;20200;-87
2023/05/27 06:55:44;;;;;;;3.63;1.15;;;16.20;96.80;;;;;;5077891;28;20215;-87
2023/05/27 06:58:16;;;;;;;3.90;2.38;;;16.20;97.10;;;;;;5075645;28;20200;-87
2023/05/27 07:00:59;;;;;;;3.97;3.05;;;16.10;96.90;;;;;;5060590;28;20197;-87
2023/05/27 07:03:31;;;;;;;2.83;1.92;;;16.00;97.80;;;;;;5060262;28;20214;-86
2023/05/27 07:06:03;;;;;;;2.25;1.35;;;15.90;97.30;;;;;;5066885;28;20266;-87
2023/05/27 07:08:34;;;;;;;4.38;2.72;;;15.90;97.00;;;;;;5073467;28;20235;-87
2023/05/27 07:11:05;;;;;;;3.58;2.40;;;15.80;97.20;;;;;;5079903;28;20200;-86
2023/05/27 07:13:37;;;;;;;1.55;1.00;;;15.70;97.60;;;;;;5093216;28;20186;-86
2023/05/27 07:16:10;;;;;;;5.60;2.70;;;15.60;97.30;;;;;;5074658;28;20196;-86
2023/05/27 07:18:44;;;;;;;3.72;1.92;;;15.60;97.70;;;;;;5076501;28;20314;-86
2023/05/27 07:21:15;;;;;;;2.00;1.20;;;15.60;98.10;;;;;;5087798;28;20324;-87
2023/05/27 07:23:46;;;;;;;2.78;1.23;;;15.60;97.60;;;;;;5096728;28;20343;-87
2023/05/27 07:26:43;;;;;;;2.75;1.60;;;15.50;98.00;;;;;;5096425;28;20247;-85
2023/05/27 07:29:19;;;;;;;2.22;1.10;;;15.50;98.10;;;;;;5086528;28;20228;-88
2023/05/27 07:31:58;;;;;;;2.85;1.88;;;15.50;98.00;;;;;;5079045;28;20211;-87
2023/05/27 07:34:32;;;;;;;2.30;1.55;;;15.50;98.20;;;;;;5076924;28;20203;-87
2023/05/27 07:37:04;;;;;;;3.35;1.33;;;15.40;98.10;;;;;;5083944;28;20545;-87
2023/05/27 07:39:37;;;;;;;2.50;1.10;;;15.40;98.20;;;;;;5082885;28;20199;-87
2023/05/27 07:42:10;;;;;;;4.75;2.10;;;15.30;98.30;;;;;;5077711;28;20273;-86
2023/05/27 07:44:43;;;;;;;1.65;1.23;;;15.20;98.20;;;;;;5077021;28;20200;-88
2023/05/27 07:47:19;;;;;;;7.00;2.47;;;15.20;98.70;;;;;;5076951;28;20204;-87
2023/05/27 07:49:55;;;;;;;3.42;1.58;;;15.20;98.30;;;;;;5076615;28;20204;-88
2023/05/27 07:52:27;;;;;;;1.20;0.90;;;15.20;98.40;;;;;;5076737;28;20202;-87
2023/05/27 07:54:59;;;;;;;2.42;0.82;;;15.10;98.30;;;;;;5076543;28;20207;-87
2023/05/27 07:57:30;;;;;;;2.42;0.75;;;15.00;98.40;;;;;;5079285;28;20204;-87
2023/05/27 08:00:01;;;;;;;1.48;0.95;;;15.00;98.80;;;;;;5080944;28;20200;-88
2023/05/27 08:02:39;;;;;;;3.35;1.80;;;15.00;99.20;;;;;;5078116;28;20747;-88
2023/05/27 08:05:14;;;;;;;6.47;2.30;;;15.00;99.20;;;;;;5078355;28;20204;-87
2023/05/27 08:07:47;;;;;;;4.93;2.35;;;14.90;99.00;;;;;;5076847;28;20247;-87
2023/05/27 08:10:21;;;;;;;4.13;1.98;;;14.90;99.30;;;;;;5056748;28;20235;-87
2023/05/27 08:12:54;;;;;;;4.32;2.50;;;14.90;98.90;;;;;;5057569;28;20180;-86
2023/05/27 08:15:25;;;;;;;3.00;1.73;;;14.90;99.20;;;;;;5072508;28;20240;-88
2023/05/27 08:18:00;;;;;;;2.10;1.50;;;14.90;99.00;;;;;;5076864;28;20204;-88
2023/05/27 08:20:31;;;;;;;1.67;1.42;;;14.80;99.10;;;;;;5076427;28;20286;-86
2023/05/27 08:23:02;;;;;;;4.00;2.00;;;14.80;98.80;;;;;;5077747;28;20215;-87
2023/05/27 08:25:36;;;;;;;8.25;4.93;;;14.80;98.50;;;;;;5075907;28;20562;-87
2023/05/27 08:28:10;;;;;;;4.05;2.20;;;14.70;99.00;;;;;;5075035;28;20568;-87
2023/05/27 08:30:43;;;;;;;2.30;1.63;;;14.60;99.70;;;;;;5074975;28;20204;-87
2023/05/27 08:33:17;;;;;;;7.60;3.00;;;14.60;99.00;;;;;;5075826;28;20188;-87
2023/05/27 08:35:50;;;;;;;3.13;2.05;;;14.50;99.10;;;;;;5075819;28;20563;-89
2023/05/27 08:38:22;;;;;;;8.82;3.53;;;14.50;99.30;;;;;;5076343;28;20207;-88
2023/05/27 08:40:56;;;;;;;5.45;2.70;;;14.40;99.50;;;;;;5077200;28;20204;-87
2023/05/27 08:43:31;;;;;;;3.92;1.90;;;14.40;99.30;;;;;;5076200;28;20227;-87
2023/05/27 08:46:04;;;;;;;3.15;2.15;;;14.40;99.70;;;;;;5072467;28;20670;-88
2023/05/27 08:48:42;;;;;;;1.98;1.70;;;14.40;98.90;;;;;;5072531;28;20217;-87
2023/05/27 08:51:13;;;;;;;5.38;3.05;;;14.30;99.50;;;;;;5074141;28;20275;-86
2023/05/27 08:53:45;;;;;;;4.30;2.65;;;14.30;99.40;;;;;;5071845;28;20204;-88
2023/05/27 08:56:21;;;;;;;5.45;2.63;;;14.40;99.20;;;;;;5072391;28;20196;-85
2023/05/27 08:58:53;;;;;;;5.90;3.17;;;14.40;99.30;;;;;;5073606;28;20200;-87
2023/05/27 09:01:27;;;;;;;5.43;2.60;;;14.40;99.80;;;;;;5060038;28;20284;-88
2023/05/27 09:04:01;;;;;;;6.32;3.30;;;14.20;99.60;;;;;;5076341;28;20235;-85
2023/05/27 09:06:33;;;;;;;5.20;3.25;;;14.30;99.60;;;;;;5067241;28;20252;-85
2023/05/27 09:09:04;;;;;;;7.03;3.50;;;14.10;99.90;;;;;;5067428;28;20220;-85
2023/05/27 09:11:42;;;;;;;6.85;3.53;;;14.20;99.90;;;;;;5064826;28;20216;-85
2023/05/27 09:14:22;;;;;;;10.50;4.60;;;14.10;99.90;;;;;;5077058;28;20204;-85
2023/05/27 09:16:54;;;;;;;5.95;3.45;;;14.10;99.90;;;;;;5074091;28;20223;-88
2023/05/27 09:19:28;;;;;;;6.05;3.22;;;14.00;99.90;;;;;;5073188;28;20196;-87
2023/05/27 09:22:00;;;;;;;4.57;3.05;;;14.00;99.90;;;;;;5073597;28;20195;-87
2023/05/27 09:24:32;;;;;;;12.02;5.20;;;14.00;99.90;;;;;;5073633;28;20204;-87
2023/05/27 09:27:03;;;;;;;3.42;2.20;;;14.00;99.90;;;;;;5075120;28;20672;-86
2023/05/27 09:29:35;;;;;;;2.88;1.95;;;13.90;99.90;;;;;;5074646;28;20654;-87
2023/05/27 09:32:07;;;;;;;7.60;3.33;;;13.90;99.90;;;;;;5054946;28;20418;-87
2023/05/27 09:34:45;;;;;;;7.35;3.58;;;13.90;99.90;;;;;;5074100;28;20199;-86
2023/05/27 09:37:20;;;;;;;5.82;2.70;;;13.80;99.90;;;;;;5073488;28;20196;-86
2023/05/27 09:39:54;;;;;;;2.40;2.20;;;13.90;99.90;;;;;;5074939;28;20210;-87
2023/05/27 09:42:25;;;;;;;4.18;2.33;;;13.80;99.90;;;;;;5074682;28;20195;-86
2023/05/27 09:44:59;;;;;;;4.70;2.47;;;13.80;99.90;;;;;;5074958;28;20204;-86
2023/05/27 09:47:31;;;;;;;3.67;2.45;;;13.80;99.90;;;;;;5074437;28;20646;-87
2023/05/27 09:50:07;;;;;;;3.78;2.65;;;13.80;99.90;;;;;;5074280;28;20597;-87
2023/05/27 09:52:40;;;;;;;4.93;2.45;;;13.80;99.90;;;;;;5074579;28;20200;-86
2023/05/27 09:55:14;;;;;;;3.05;2.25;;;13.80;99.90;;;;;;5074284;28;20204;-88
2023/05/27 09:57:45;;;;;;;4.43;2.80;;;13.70;99.90;;;;;;5074358;28;20666;-87
2023/05/27 10:00:17;;;;;;;12.43;5.18;;;13.70;99.90;;;;;;5074140;28;20199;-87
2023/05/27 10:02:50;;;;;;;17.83;6.90;;;13.70;99.90;;;;;;5082509;28;20230;-86
2023/05/27 10:05:24;;;;;;;3.72;2.50;;;13.60;99.90;;;;;;5077293;28;20206;-88
2023/05/27 10:07:57;;;;;;;4.28;2.58;;;13.50;99.90;;;;;;5076594;28;20250;-88
2023/05/27 10:10:28;;;;;;;3.58;2.10;;;13.50;99.90;;;;;;5076374;28;20214;-88
2023/05/27 10:13:03;;;;;;;3.90;2.47;;;13.50;99.90;;;;;;5076647;28;20210;-87
2023/05/27 10:15:36;;;;;;;6.18;3.33;;;13.50;99.90;;;;;;5075890;28;20195;-86
2023/05/27 10:18:09;;;;;;;5.45;3.88;;;13.50;99.90;;;;;;5076120;28;20275;-86
2023/05/27 10:20:52;;;;;;;4.07;2.70;;;13.60;99.90;;;;;;5075964;28;20622;-87
2023/05/27 10:23:27;;;;;;;4.38;2.20;;;13.50;99.90;;;;;;5075150;28;20227;-88
2023/05/27 10:26:03;;;;;;;2.85;1.73;;;13.50;99.90;;;;;;5076769;28;20610;-88
2023/05/27 10:28:36;;;;;;;2.95;1.70;;;13.40;99.90;;;;;;5077157;28;20226;-88
2023/05/27 10:31:09;;;;;;;9.98;3.95;;;13.40;99.90;;;;;;5075842;28;20208;-86
2023/05/27 10:33:43;;;;;;;4.97;2.17;;;13.30;99.90;;;;;;5075387;28;20188;-87
2023/05/27 10:36:18;;;;;;;5.93;2.70;;;13.20;99.90;;;;;;5075291;28;20210;-86
2023/05/27 10:39:00;;;;;;;6.28;3.47;;;13.30;99.90;;;;;;5076607;28;20208;-86
2023/05/27 10:41:32;;;;;;;4.82;3.00;;;13.40;99.90;;;;;;5080037;28;20196;-86
2023/05/27 10:44:06;;;;;;;4.38;2.70;;;13.40;99.90;;;;;;5076638;28;20207;-88
2023/05/27 10:46:43;;;;;;;4.40;2.88;;;13.40;99.90;;;;;;5075832;28;20253;-88
2023/05/27 10:49:18;;;;;;;4.55;3.20;;;13.30;99.90;;;;;;5074951;28;20196;-87
2023/05/27 10:52:00;;;;;;;5.30;4.22;;;13.20;99.90;;;;;;5075439;28;20605;-87
2023/05/27 10:54:35;;;;;;;7.30;3.70;;;13.20;99.90;;;;;;5074947;28;20235;-87
2023/05/27 10:57:08;;;;;;;4.65;2.72;;;13.20;99.90;;;;;;5055102;28;20196;-88
2023/05/27 10:59:50;;;;;;;3.88;2.50;;;13.30;99.90;;;;;;5054633;28;20212;-87
2023/05/27 11:02:28;;;;;;;5.38;2.67;;;13.20;99.90;;;;;;5054822;28;20204;-88
2023/05/27 11:05:01;;;;;;;5.28;2.92;;;13.10;99.90;;;;;;5054366;28;20318;-86
2023/05/27 11:07:34;;;;;;;3.60;2.53;;;13.10;99.90;;;;;;5054323;28;20300;-86
2023/05/27 11:10:07;;;;;;;4.57;2.60;;;13.20;99.90;;;;;;5054903;28;20197;-87
2023/05/27 11:12:39;;;;;;;4.60;2.60;;;13.20;99.90;;;;;;5063999;28;20255;-88
2023/05/27 11:15:10;;;;;;;3.72;2.35;;;13.20;99.90;;;;;;5074226;28;20562;-87
2023/05/27 11:17:42;;;;;;;7.72;4.20;;;13.20;99.90;;;;;;5073573;28;20208;-87
2023/05/27 11:20:16;;;;;;;9.88;5.18;;;13.10;99.90;;;;;;5064692;28;20196;-87
2023/05/27 11:22:55;;;;;;;11.35;6.75;;;13.10;99.90;;;;;;5063543;28;20207;-87
2023/05/27 11:25:27;;;;;;;9.98;6.10;;;13.10;99.90;;;;;;5074451;28;20207;-88
2023/05/27 11:27:59;;;;;;;11.52;6.13;;;13.10;99.90;;;;;;5075756;28;20206;-86
2023/05/27 11:30:31;;;;;;;12.18;6.38;;;13.10;99.90;;;;;;5076017;28;20548;-86
2023/05/27 11:33:07;;;;;;;13.10;6.60;;;13.00;99.90;;;;;;5074054;28;20508;-87
2023/05/27 11:35:38;;;;;;;10.30;5.53;;;12.90;99.90;;;;;;5058574;28;20196;-87
2023/05/27 11:38:20;;;;;;;8.63;5.03;;;13.00;99.90;;;;;;5052468;28;20200;-86
2023/05/27 11:40:51;;;;;;;8.05;5.05;;;13.00;99.90;;;;;;5051571;28;20612;-87
2023/05/27 11:43:22;;;;;;;7.65;4.38;;;13.00;99.90;;;;;;5053200;28;20235;-87
2023/05/27 11:45:56;;;;;;;6.07;3.70;;;13.00;99.90;;;;;;5062042;28;20204;-86
2023/05/27 11:48:29;;;;;;;7.07;3.90;;;13.00;99.90;;;;;;5079093;28;20257;-86
2023/05/27 11:51:02;;;;;;;6.68;3.50;;;13.00;99.90;;;;;;5081687;28;20267;-87
2023/05/27 11:53:44;;;;;;;3.92;3.05;;;13.00;99.90;;;;;;5068348;28;20278;-87
2023/05/27 11:56:15;;;;;;;4.95;2.92;;;12.90;99.90;;;;;;5061457;28;20334;-88
2023/05/27 11:59:06;;;;;;;3.95;2.60;;;12.90;99.90;;;;;;5063112;28;20204;-87
2023/05/27 12:01:48;;;;;;;4.70;2.83;;;13.00;99.90;;;;;;5063969;28;20196;-85
2023/05/27 12:04:23;;;;;;;3.80;2.70;;;12.90;99.90;;;;;;5076192;28;20281;-87
2023/05/27 12:07:00;;;;;;;5.75;2.70;;;12.90;99.90;;;;;;5076460;28;20247;-88
2023/05/27 12:09:34;;;;;;;3.67;2.47;;;12.90;99.90;;;;;;5076491;28;20191;-87
2023/05/27 12:12:08;;;;;;;3.28;2.40;;;12.90;99.90;;;;;;5075897;28;20199;-86
2023/05/27 12:14:42;;;;;;;3.50;2.40;;;12.90;99.90;;;;;;5060134;28;20195;-86
2023/05/27 12:17:15;;;;;;;3.72;2.50;;;12.90;99.90;;;;;;5077343;28;20200;-86
2023/05/27 12:19:49;;;;;;;3.83;2.28;;;12.80;99.90;;;;;;5074657;28;20196;-86
2023/05/27 12:22:21;;;;;;;3.55;2.50;;;12.80;99.90;;;;;;5076267;28;20278;-86
2023/05/27 12:25:02;;;;;;;3.58;2.65;;;12.80;99.90;;;;;;5078183;28;20231;-86
2023/05/27 12:27:33;;;;;;;3.72;2.60;;;12.80;99.90;;;;;;5077168;28;20203;-87
2023/05/27 12:30:06;;;;;;;4.70;2.72;;;12.80;99.90;;;;;;5075612;28;20243;-86
2023/05/27 12:32:38;;;;;;;6.40;2.97;;;12.70;99.90;;;;;;5076619;28;20207;-86
2023/05/27 12:35:11;;;;;;;4.95;2.95;;;12.80;99.90;;;;;;5071413;28;20197;-86
2023/05/27 12:37:42;;;;;;;6.10;2.55;;;12.70;99.90;;;;;;5063836;28;20284;-86
2023/05/27 12:40:18;;;;;;;4.05;2.47;;;12.60;99.90;;;;;;5076948;28;20206;-86
2023/05/27 12:42:51;;;;;;;3.85;2.90;;;12.70;99.90;;;;;;5078377;28;20196;-88
2023/05/27 12:45:25;;;;;;;4.53;2.70;;;12.60;99.90;;;;;;5079064;28;20270;-84
2023/05/27 12:47:57;;;;;;;3.92;3.00;;;12.60;99.90;;;;;;5079851;28;20197;-86
2023/05/27 12:50:28;;;;;;;4.15;3.17;;;12.60;99.90;;;;;;5074688;28;20206;-86
2023/05/27 12:53:02;;;;;;;5.25;2.88;;;12.50;99.90;;;;;;5075755;28;20215;-86
2023/05/27 12:55:38;;;;;;;5.45;3.00;;;12.40;99.90;;;;;;5075132;28;20376;-86
2023/05/27 12:58:10;;;;;;;3.60;2.85;;;12.30;99.90;;;;;;5075761;28;20192;-87
2023/05/27 13:00:41;;;;;;;4.97;2.90;;;12.30;99.90;;;;;;5079311;28;20218;-87
2023/05/27 13:03:13;;;;;;;3.30;2.67;;;12.20;99.90;;;;;;5078664;28;20226;-86
2023/05/27 13:06:08;;;;;;;5.47;2.65;;;12.20;99.90;;;;;;5081778;28;20186;-86
2023/05/27 13:08:40;;;;;;;4.25;2.60;;;12.10;99.90;;;;;;5080962;28;20681;-86
2023/05/27 13:11:37;;;;;;;3.92;2.80;;;12.10;99.90;;;;;;5082332;28;20204;-86
2023/05/27 13:14:13;;;;;;;3.78;2.78;;;12.10;99.90;;;;;;5089445;28;20269;-87
2023/05/27 13:16:49;;;;;;;4.07;2.65;;;12.10;99.90;;;;;;5083358;28;21069;-87
2023/05/27 13:19:22;;;;;;;5.43;2.88;;;12.10;99.90;;;;;;5084153;28;20191;-87
2023/05/27 13:21:58;;;;;;;3.42;2.28;;;12.10;99.90;;;;;;5087142;28;20215;-86